Evangeline, Louisiana
Current Conditions -  °F | °C
As of 1:35 PM on Thursday 30 Oct 2014 (Local Time) from K3R7 Reporting Station
Clear Clear  
Wind Chill: 73°   Ceiling: Unl
Heat Index: 73°   Visibility: 10mi
Dew Point: 43°   Wind: 7mph
Humidity: 34%   Direction: 60°ENE
Pressure: 30.09"   Gusts: NA
Location:  30.26°N, 92.57°W
Report Text: K3R7 301835Z AUTO 06006KT 10SM CLR 23/06 A3009 RMK AO2 T02250059
Loading
Personal Weather Stations






























Interactive Weather Map
Tropical Storm Tracking
New forecast layout! Learn more

10-Day Weather Forecast

Advertisements
Track Severe Weather on mobile